createdAt,value
2023-05-08T00:00:44.919Z,91.67
2023-05-08T00:03:48.049Z,90.89
2023-05-08T00:06:53.202Z,91.48
2023-05-08T00:09:55.952Z,91.28
2023-05-08T00:12:59.433Z,91.50
2023-05-08T00:16:02.188Z,92.45
2023-05-08T00:19:04.869Z,92.88
2023-05-08T00:22:07.624Z,93.04
2023-05-08T00:25:10.283Z,92.62
2023-05-08T00:28:16.235Z,92.67
2023-05-08T00:31:18.932Z,93.23
2023-05-08T00:34:21.652Z,93.02
2023-05-08T00:37:24.232Z,93.58
2023-05-08T00:40:27.143Z,93.54
2023-05-08T00:43:29.969Z,93.44
2023-05-08T00:46:36.727Z,93.98
2023-05-08T00:49:39.685Z,93.67
2023-05-08T00:52:45.388Z,93.97
2023-05-08T00:55:48.116Z,94.88
2023-05-08T00:58:51.403Z,94.08
2023-05-08T01:01:54.292Z,94.84
2023-05-08T01:04:57.174Z,95.04
2023-05-08T01:07:59.799Z,95.07
2023-05-08T01:11:17.810Z,95.45
2023-05-08T01:14:24.872Z,95.94
2023-05-08T01:17:39.286Z,96.24
2023-05-08T01:21:05.574Z,96.80
2023-05-08T01:24:39.597Z,97.10
2023-05-08T01:28:13.310Z,97.47
2023-05-08T01:31:48.361Z,97.24
2023-05-08T01:34:59.643Z,98.27
2023-05-08T01:38:28.300Z,97.86
2023-05-08T01:41:34.972Z,98.62
2023-05-08T01:44:41.943Z,99.11
2023-05-08T01:47:48.498Z,100.00
2023-05-08T01:50:59.334Z,99.86
2023-05-08T01:54:08.715Z,100.00
2023-05-08T01:57:14.060Z,100.00
2023-05-08T02:00:21.869Z,100.00
2023-05-08T02:03:24.930Z,100.00
2023-05-08T02:06:28.708Z,100.00
2023-05-08T02:09:31.759Z,100.00
2023-05-08T02:12:34.933Z,100.00
2023-05-08T02:15:38.146Z,100.00
2023-05-08T02:18:52.557Z,100.00
2023-05-08T02:21:55.854Z,100.00
2023-05-08T02:24:58.773Z,100.00
2023-05-08T02:28:01.882Z,100.00
2023-05-08T02:31:05.761Z,100.00
2023-05-08T02:34:08.867Z,100.00
2023-05-08T02:37:12.744Z,100.00
2023-05-08T02:40:17.584Z,100.00
2023-05-08T02:43:20.468Z,100.00
2023-05-08T02:46:33.413Z,100.00
2023-05-08T02:49:49.474Z,100.00
2023-05-08T02:52:54.770Z,100.00
2023-05-08T02:56:03.734Z,100.00
2023-05-08T02:59:09.376Z,100.00
2023-05-08T03:02:33.973Z,100.00
2023-05-08T03:05:38.723Z,100.00
2023-05-08T03:08:42.824Z,100.00
2023-05-08T03:11:49.171Z,100.00
2023-05-08T03:15:03.564Z,100.00
2023-05-08T03:18:12.173Z,100.00
2023-05-08T03:21:17.837Z,100.00
2023-05-08T03:24:20.875Z,100.00
2023-05-08T03:27:24.084Z,100.00
2023-05-08T03:30:27.318Z,100.00
2023-05-08T03:33:31.187Z,100.00
2023-05-08T03:36:34.083Z,100.00
2023-05-08T03:39:37.075Z,100.00
2023-05-08T03:42:40.303Z,100.00
2023-05-08T03:45:43.756Z,100.00
2023-05-08T03:48:47.464Z,100.00
2023-05-08T03:51:50.509Z,100.00
2023-05-08T03:54:53.467Z,100.00
2023-05-08T03:58:17.883Z,100.00
2023-05-08T04:01:32.830Z,100.00
2023-05-08T04:04:42.482Z,100.00
2023-05-08T04:07:54.297Z,100.00
2023-05-08T04:11:09.171Z,100.00
2023-05-08T04:14:18.174Z,100.00
2023-05-08T04:17:48.506Z,100.00
2023-05-08T04:20:53.418Z,100.00
2023-05-08T04:23:57.883Z,100.00
2023-05-08T04:27:01.866Z,100.00
2023-05-08T04:30:05.381Z,100.00
2023-05-08T04:33:08.596Z,100.00
2023-05-08T04:36:14.752Z,100.00
2023-05-08T04:39:18.443Z,100.00
2023-05-08T04:42:21.587Z,100.00
2023-05-08T04:45:24.512Z,100.00
2023-05-08T04:48:27.326Z,100.00
2023-05-08T04:51:29.967Z,100.00
2023-05-08T04:54:32.914Z,100.00
2023-05-08T04:57:35.691Z,100.00
2023-05-08T05:00:38.415Z,100.00
2023-05-08T05:03:42.182Z,100.00
2023-05-08T05:06:46.460Z,100.00
2023-05-08T05:09:49.176Z,100.00
2023-05-08T05:12:52.150Z,100.00
2023-05-08T05:15:59.462Z,100.00
2023-05-08T05:19:02.139Z,98.72
2023-05-08T05:22:06.470Z,98.50
2023-05-08T05:25:09.667Z,98.46
2023-05-08T05:28:12.653Z,97.80
2023-05-08T05:31:15.652Z,97.74
2023-05-08T05:34:18.440Z,96.32
2023-05-08T05:37:24.428Z,95.80
2023-05-08T05:40:27.103Z,94.75
2023-05-08T05:43:30.000Z,94.31
2023-05-08T05:46:35.945Z,95.25
2023-05-08T05:49:39.963Z,94.82
2023-05-08T05:52:46.238Z,94.74
2023-05-08T05:55:48.913Z,93.99
2023-05-08T05:58:51.972Z,92.22
2023-05-08T06:01:58.066Z,92.56
2023-05-08T06:05:00.849Z,90.57
2023-05-08T06:08:03.856Z,91.38
2023-05-08T06:11:06.754Z,90.59
2023-05-08T06:14:09.393Z,90.85
2023-05-08T06:17:12.247Z,90.96
2023-05-08T06:20:15.163Z,90.08
2023-05-08T06:23:18.152Z,91.30
2023-05-08T06:26:23.306Z,89.36
2023-05-08T06:29:26.239Z,91.80
2023-05-08T06:32:29.128Z,91.75
2023-05-08T06:35:32.111Z,88.61
2023-05-08T06:38:38.441Z,89.03
2023-05-08T06:41:41.102Z,90.12
2023-05-08T06:44:44.132Z,88.20
2023-05-08T06:47:46.939Z,88.26
2023-05-08T06:50:51.946Z,89.42
2023-05-08T06:53:56.186Z,87.08
2023-05-08T06:56:58.826Z,87.49
2023-05-08T07:00:01.604Z,87.39
2023-05-08T07:03:04.736Z,86.89
2023-05-08T07:06:11.789Z,87.29
2023-05-08T07:09:14.398Z,87.64
2023-05-08T07:12:17.501Z,86.38
2023-05-08T07:15:25.998Z,85.65
2023-05-08T07:18:29.698Z,85.95
2023-05-08T07:21:32.659Z,84.77
2023-05-08T07:24:36.072Z,85.43
2023-05-08T07:27:38.989Z,84.32
2023-05-08T07:30:41.762Z,83.23
2023-05-08T07:33:44.522Z,83.87
2023-05-08T07:36:47.147Z,82.62
2023-05-08T07:39:49.890Z,83.31
2023-05-08T07:42:52.518Z,81.55
2023-05-08T07:45:56.146Z,82.88
2023-05-08T07:48:58.975Z,80.64
2023-05-08T07:52:01.727Z,80.13
2023-05-08T07:55:04.895Z,81.92
2023-05-08T07:58:07.585Z,79.38
2023-05-08T08:01:10.341Z,79.66
2023-05-08T08:04:16.167Z,79.09
2023-05-08T08:07:18.892Z,78.94
2023-05-08T08:10:21.654Z,77.29
2023-05-08T08:13:24.546Z,77.79
2023-05-08T08:16:27.349Z,75.54
2023-05-08T08:19:36.403Z,75.79
2023-05-08T08:22:39.464Z,73.75
2023-05-08T08:25:42.825Z,73.10
2023-05-08T08:28:46.271Z,74.13
2023-05-08T08:31:48.895Z,72.67
2023-05-08T08:34:51.943Z,70.41
2023-05-08T08:37:54.580Z,68.96
2023-05-08T08:40:57.319Z,68.86
2023-05-08T08:44:00.577Z,69.09
2023-05-08T08:47:05.897Z,70.41
2023-05-08T08:50:14.430Z,68.30
2023-05-08T08:53:27.792Z,69.12
2023-05-08T08:56:32.414Z,69.35
2023-05-08T08:59:39.072Z,68.37
2023-05-08T09:02:41.904Z,67.64
2023-05-08T09:05:45.634Z,67.44
2023-05-08T09:08:48.456Z,65.98
2023-05-08T09:11:52.672Z,66.07
2023-05-08T09:14:58.353Z,66.14
2023-05-08T09:18:02.580Z,63.91
2023-05-08T09:21:07.240Z,65.49
2023-05-08T09:24:11.019Z,63.47
2023-05-08T09:27:21.592Z,63.62
2023-05-08T09:30:24.388Z,59.09
2023-05-08T09:33:29.764Z,62.03
2023-05-08T09:36:32.456Z,63.35
2023-05-08T09:39:41.554Z,61.46
2023-05-08T09:42:44.838Z,61.21
2023-05-08T09:45:47.608Z,59.50
2023-05-08T09:48:51.849Z,59.07
2023-05-08T09:51:54.951Z,58.18
2023-05-08T09:55:04.474Z,57.12
2023-05-08T09:58:07.171Z,58.63
2023-05-08T10:01:33.515Z,54.78
2023-05-08T10:04:37.596Z,56.92
2023-05-08T10:07:41.535Z,58.78
2023-05-08T10:10:45.049Z,58.44
2023-05-08T10:13:47.756Z,55.74
2023-05-08T10:16:53.137Z,56.23
2023-05-08T10:20:00.311Z,57.01
2023-05-08T10:23:11.575Z,56.26
2023-05-08T10:26:17.795Z,59.28
2023-05-08T10:29:28.089Z,54.39
2023-05-08T10:32:43.631Z,54.36
2023-05-08T10:35:46.938Z,56.25
2023-05-08T10:38:50.426Z,55.14
2023-05-08T10:41:56.701Z,54.88
2023-05-08T10:44:59.943Z,55.09
2023-05-08T10:48:22.882Z,52.79
2023-05-08T10:52:13.021Z,53.00
2023-05-08T10:55:31.217Z,58.58
2023-05-08T10:58:36.500Z,57.56
2023-05-08T11:01:39.443Z,56.37
2023-05-08T11:04:42.479Z,57.94
2023-05-08T11:07:59.020Z,55.79
2023-05-08T11:11:05.371Z,54.19
2023-05-08T11:14:08.060Z,49.10
2023-05-08T11:17:11.090Z,51.57
2023-05-08T11:20:14.187Z,51.24
2023-05-08T11:23:31.305Z,51.97
2023-05-08T11:26:40.886Z,52.44
2023-05-08T11:29:47.167Z,50.13
2023-05-08T11:33:17.094Z,49.73
2023-05-08T11:36:22.449Z,45.68
2023-05-08T11:39:28.006Z,46.49
2023-05-08T11:42:33.845Z,51.12
2023-05-08T11:45:39.177Z,53.60
2023-05-08T11:48:42.058Z,54.30
2023-05-08T11:51:50.583Z,55.07
2023-05-08T11:54:56.490Z,51.75
2023-05-08T11:58:00.119Z,49.58
2023-05-08T12:01:02.846Z,50.41
2023-05-08T12:04:13.391Z,49.19
2023-05-08T12:07:16.734Z,43.99
2023-05-08T12:10:22.852Z,43.25
2023-05-08T12:13:30.086Z,44.07
2023-05-08T12:16:38.766Z,45.78
2023-05-08T12:19:44.730Z,48.17
2023-05-08T12:22:52.924Z,48.84
2023-05-08T12:25:59.675Z,47.62
2023-05-08T12:29:02.617Z,47.50
2023-05-08T12:32:06.328Z,47.53
2023-05-08T12:35:10.192Z,45.73
2023-05-08T12:38:14.481Z,43.52
2023-05-08T12:41:26.611Z,44.51
2023-05-08T12:44:30.526Z,45.29
2023-05-08T12:47:36.356Z,45.63
2023-05-08T12:50:42.804Z,45.02
2023-05-08T12:53:50.651Z,41.97
2023-05-08T12:56:57.346Z,39.37
2023-05-08T13:00:05.195Z,39.73
2023-05-08T13:03:09.634Z,37.86
2023-05-08T13:06:22.609Z,40.25
2023-05-08T13:09:28.269Z,40.95
2023-05-08T13:12:31.949Z,45.63
2023-05-08T13:15:38.304Z,45.53
2023-05-08T13:18:40.978Z,42.37
2023-05-08T13:21:48.120Z,40.60
2023-05-08T13:24:50.863Z,40.49
2023-05-08T13:27:53.717Z,39.52
2023-05-08T13:30:56.452Z,36.61
2023-05-08T13:33:59.186Z,35.94
2023-05-08T13:37:02.050Z,37.18
2023-05-08T13:40:05.299Z,37.26
2023-05-08T13:43:08.311Z,37.44
2023-05-08T13:46:11.120Z,37.41
2023-05-08T13:49:14.007Z,40.14
2023-05-08T13:52:17.516Z,39.71
2023-05-08T13:55:22.434Z,37.58
2023-05-08T13:58:25.129Z,37.66
2023-05-08T14:01:28.094Z,38.22
2023-05-08T14:04:30.877Z,36.77
2023-05-08T14:07:35.737Z,37.19
2023-05-08T14:10:39.149Z,34.83
2023-05-08T14:13:45.044Z,34.49
2023-05-08T14:16:53.602Z,35.79
2023-05-08T14:19:56.530Z,36.09
2023-05-08T14:23:02.615Z,35.73
2023-05-08T14:26:05.574Z,36.34
2023-05-08T14:29:08.331Z,37.20
2023-05-08T14:32:11.732Z,38.37
2023-05-08T14:35:14.705Z,37.37
2023-05-08T14:38:17.898Z,37.09
2023-05-08T14:41:20.656Z,35.50
2023-05-08T14:44:23.520Z,36.12
2023-05-08T14:47:26.449Z,34.96
2023-05-08T14:50:29.238Z,35.06
2023-05-08T14:53:32.274Z,34.62
2023-05-08T14:56:46.428Z,33.69
2023-05-08T14:59:55.061Z,34.06
2023-05-08T15:02:58.179Z,33.66
2023-05-08T15:06:01.009Z,34.59
2023-05-08T15:09:03.800Z,35.73
2023-05-08T15:12:07.185Z,35.14
2023-05-08T15:15:10.227Z,36.16
2023-05-08T15:18:12.978Z,37.25
2023-05-08T15:21:15.649Z,37.17
2023-05-08T15:24:18.446Z,37.05
2023-05-08T15:27:21.177Z,36.17
2023-05-08T15:30:25.472Z,36.54
2023-05-08T15:33:28.220Z,35.56
2023-05-08T15:36:34.288Z,34.80
2023-05-08T15:39:37.689Z,35.91
2023-05-08T15:42:40.367Z,35.70
2023-05-08T15:45:43.058Z,35.61
2023-05-08T15:48:45.793Z,35.01
2023-05-08T15:51:48.404Z,35.66
2023-05-08T15:54:51.253Z,35.72
2023-05-08T15:57:53.897Z,36.12
2023-05-08T16:00:57.850Z,37.58
2023-05-08T16:04:00.557Z,39.37
2023-05-08T16:07:03.569Z,40.64
2023-05-08T16:10:07.451Z,41.58
2023-05-08T16:13:10.461Z,41.57
2023-05-08T16:16:13.337Z,42.32
2023-05-08T16:19:16.235Z,42.79
2023-05-08T16:22:19.318Z,43.47
2023-05-08T16:25:22.394Z,44.13
2023-05-08T16:28:25.070Z,44.28
2023-05-08T16:31:27.876Z,43.40
2023-05-08T16:34:31.132Z,45.57
2023-05-08T16:37:34.037Z,45.40
2023-05-08T16:40:38.224Z,45.67
2023-05-08T16:43:40.987Z,45.66
2023-05-08T16:46:43.790Z,46.26
2023-05-08T16:49:46.824Z,46.51
2023-05-08T16:52:52.866Z,47.41
2023-05-08T16:55:58.778Z,47.74
2023-05-08T16:59:06.195Z,48.13
2023-05-08T17:02:09.000Z,49.90
2023-05-08T17:05:12.113Z,50.62
2023-05-08T17:08:14.920Z,52.00
2023-05-08T17:11:17.656Z,52.57
2023-05-08T17:14:20.615Z,53.68
2023-05-08T17:17:23.316Z,55.58
2023-05-08T17:20:26.421Z,57.93
2023-05-08T17:23:29.206Z,59.03
2023-05-08T17:26:33.397Z,59.61
2023-05-08T17:29:37.380Z,61.13
2023-05-08T17:32:40.688Z,61.12
2023-05-08T17:35:43.527Z,62.45
2023-05-08T17:38:47.453Z,63.65
2023-05-08T17:41:51.045Z,64.51
2023-05-08T17:44:54.144Z,65.78
2023-05-08T17:47:58.424Z,66.63
2023-05-08T17:51:05.740Z,68.98
2023-05-08T17:54:08.741Z,71.36
2023-05-08T17:57:11.551Z,71.16
2023-05-08T18:00:15.000Z,72.92
2023-05-08T18:03:20.256Z,74.12
2023-05-08T18:06:24.534Z,73.90
2023-05-08T18:09:28.342Z,75.56
2023-05-08T18:12:32.546Z,76.10
2023-05-08T18:15:39.140Z,76.87
2023-05-08T18:18:42.165Z,78.13
2023-05-08T18:21:45.975Z,78.48
2023-05-08T18:24:50.198Z,79.43
2023-05-08T18:27:53.053Z,80.26
2023-05-08T18:30:55.754Z,80.90
2023-05-08T18:33:58.722Z,81.46
2023-05-08T18:37:01.385Z,81.87
2023-05-08T18:40:05.276Z,84.05
2023-05-08T18:43:07.951Z,84.54
2023-05-08T18:46:14.456Z,85.16
2023-05-08T18:49:17.131Z,85.08
2023-05-08T18:52:20.240Z,86.55
2023-05-08T18:55:25.441Z,86.17
2023-05-08T18:58:28.219Z,87.14
2023-05-08T19:01:31.002Z,87.61
2023-05-08T19:04:34.631Z,87.69
2023-05-08T19:07:39.735Z,87.97
2023-05-08T19:10:42.602Z,89.01
2023-05-08T19:13:45.554Z,89.67
2023-05-08T19:16:48.343Z,89.78
2023-05-08T19:19:53.856Z,91.33
2023-05-08T19:22:56.745Z,92.28
2023-05-08T19:25:59.341Z,92.44
2023-05-08T19:29:02.305Z,92.85
2023-05-08T19:32:05.596Z,92.40
2023-05-08T19:35:09.929Z,93.01
2023-05-08T19:38:12.905Z,92.89
2023-05-08T19:41:17.434Z,85.89
2023-05-08T19:44:20.060Z,85.76
2023-05-08T19:47:22.851Z,84.62
2023-05-08T19:50:25.695Z,81.87
2023-05-08T19:53:28.471Z,80.75
2023-05-08T19:56:31.163Z,79.10
2023-05-08T19:59:33.999Z,78.20
2023-05-08T20:02:37.232Z,75.38
2023-05-08T20:05:39.955Z,75.69
2023-05-08T20:08:42.657Z,75.61
2023-05-08T20:11:46.557Z,75.08
2023-05-08T20:14:49.576Z,74.89
2023-05-08T20:17:52.866Z,73.09
2023-05-08T20:20:55.725Z,72.22
2023-05-08T20:23:59.487Z,71.67
2023-05-08T20:27:02.162Z,71.21
2023-05-08T20:30:06.354Z,72.88
2023-05-08T20:33:09.286Z,74.25
2023-05-08T20:36:12.057Z,75.89
2023-05-08T20:39:14.930Z,77.01
2023-05-08T20:42:17.650Z,77.67
2023-05-08T20:45:20.360Z,77.67
2023-05-08T20:48:23.280Z,78.60
2023-05-08T20:51:26.554Z,79.08
2023-05-08T20:54:30.101Z,80.64
2023-05-08T20:57:32.821Z,81.21
2023-05-08T21:00:36.114Z,81.21
2023-05-08T21:03:38.945Z,81.06
2023-05-08T21:06:42.187Z,79.27
2023-05-08T21:09:44.912Z,79.38
2023-05-08T21:12:47.566Z,76.95
2023-05-08T21:15:52.883Z,75.64
2023-05-08T21:18:58.054Z,73.61
2023-05-08T21:22:01.180Z,72.31
2023-05-08T21:25:04.032Z,72.70
2023-05-08T21:28:06.767Z,71.74
2023-05-08T21:31:09.560Z,70.43
2023-05-08T21:34:12.498Z,71.83
2023-05-08T21:37:15.196Z,70.98
2023-05-08T21:40:17.963Z,71.53
2023-05-08T21:43:20.658Z,71.95
2023-05-08T21:46:23.339Z,71.97
2023-05-08T21:49:26.047Z,72.48
2023-05-08T21:52:28.677Z,72.68
2023-05-08T21:55:32.477Z,73.08
2023-05-08T21:58:35.332Z,73.44
2023-05-08T22:01:38.127Z,73.10
2023-05-08T22:04:40.915Z,73.10
2023-05-08T22:07:43.637Z,73.56
2023-05-08T22:10:46.573Z,74.62
2023-05-08T22:13:49.296Z,74.73
2023-05-08T22:16:51.998Z,75.54
2023-05-08T22:19:54.697Z,75.92
2023-05-08T22:22:57.445Z,76.11
2023-05-08T22:26:00.174Z,78.05
2023-05-08T22:29:02.876Z,77.35
2023-05-08T22:32:05.784Z,77.94
2023-05-08T22:35:08.938Z,78.06
2023-05-08T22:38:11.694Z,78.20
2023-05-08T22:41:14.372Z,78.31
2023-05-08T22:44:17.040Z,78.50
2023-05-08T22:47:19.783Z,79.06
2023-05-08T22:50:22.529Z,79.44
2023-05-08T22:53:25.435Z,81.39
2023-05-08T22:56:28.234Z,82.02
2023-05-08T22:59:31.137Z,81.59
2023-05-08T23:02:34.731Z,81.45
2023-05-08T23:05:37.590Z,83.00
2023-05-08T23:08:40.338Z,83.65
2023-05-08T23:11:43.056Z,84.02
2023-05-08T23:14:45.793Z,85.06
2023-05-08T23:17:49.346Z,85.38
2023-05-08T23:20:52.050Z,85.03
2023-05-08T23:23:54.659Z,84.91
2023-05-08T23:26:57.337Z,86.25
2023-05-08T23:33:08.829Z,87.46
2023-05-08T23:36:11.620Z,88.26
2023-05-08T23:39:14.240Z,87.83
2023-05-08T23:42:16.971Z,87.47
2023-05-08T23:45:19.826Z,90.53
2023-05-08T23:48:22.534Z,91.92
2023-05-08T23:51:25.635Z,92.70
2023-05-08T23:54:28.305Z,92.98
2023-05-08T23:57:31.055Z,93.14
